Time,TemperatureF,DewpointF,PressureIn,WindDirection,WindDirectionDegrees,WindSpeedMPH,WindSpeedGustMPH,Humidity,HourlyPrecipIn,Conditions,Clouds,dailyrainin,SoftwareType,DateUTC
2013-04-02 00:03:00,25.0,13.0,30.13,WSW,250,0.0,2.0,59,0.00,,,0.00,,2013-04-02 04:03:00,
2013-04-02 00:13:00,25.0,13.0,30.13,WSW,250,0.0,2.0,59,0.00,,,0.00,,2013-04-02 04:13:00,
2013-04-02 00:23:00,25.0,12.0,30.13,West,270,1.0,3.0,58,0.00,,,0.00,,2013-04-02 04:23:00,
2013-04-02 00:33:00,25.0,12.0,30.13,West,270,1.0,3.0,58,0.00,,,0.00,,2013-04-02 04:33:00,
2013-04-02 00:43:00,25.0,12.0,30.13,West,270,1.0,3.0,58,0.00,,,0.00,,2013-04-02 04:43:00,
2013-04-02 00:53:00,24.0,12.0,30.13,WNW,290,1.0,3.0,59,0.00,,,0.00,,2013-04-02 04:53:00,
2013-04-02 01:02:00,22.0,12.0,30.13,WNW,287,0.0,2.0,64,0.00,,,0.00,,2013-04-02 05:02:00,
2013-04-02 01:12:00,22.0,12.0,30.13,WNW,287,0.0,2.0,64,0.00,,,0.00,,2013-04-02 05:12:00,
2013-04-02 01:22:00,22.0,12.0,30.13,WNW,284,1.0,2.0,66,0.00,,,0.00,,2013-04-02 05:22:00,
2013-04-02 01:32:00,22.0,12.0,30.13,West,273,0.0,2.0,66,0.00,,,0.00,,2013-04-02 05:32:00,
2013-04-02 01:43:00,22.0,12.0,30.13,West,273,0.0,2.0,66,0.00,,,0.00,,2013-04-02 05:43:00,
2013-04-02 01:52:00,23.0,13.0,30.13,West,278,0.0,1.0,65,0.00,,,0.00,,2013-04-02 05:52:00,
2013-04-02 02:02:00,23.0,13.0,30.13,West,278,0.0,1.0,65,0.00,,,0.00,,2013-04-02 06:02:00,
2013-04-02 02:12:00,23.0,13.0,30.13,West,278,0.0,1.0,65,0.00,,,0.00,,2013-04-02 06:12:00,
2013-04-02 02:22:00,23.0,13.0,30.14,SW,235,0.0,1.0,66,0.00,,,0.00,,2013-04-02 06:22:00,
2013-04-02 02:32:00,23.0,15.0,30.13,SW,231,0.0,1.0,70,0.00,,,0.00,,2013-04-02 06:32:00,
2013-04-02 02:42:00,23.0,15.0,30.13,SW,231,0.0,1.0,70,0.00,,,0.00,,2013-04-02 06:42:00,
2013-04-02 02:52:00,23.0,15.0,30.14,SW,229,0.0,1.0,71,0.00,,,0.00,,2013-04-02 06:52:00,
2013-04-02 03:02:00,22.0,13.0,30.14,WSW,240,0.0,1.0,68,0.00,,,0.00,,2013-04-02 07:02:00,
2013-04-02 03:13:00,22.0,13.0,30.14,WSW,240,0.0,1.0,68,0.00,,,0.00,,2013-04-02 07:13:00,
2013-04-02 03:22:00,22.0,13.0,30.14,SW,235,1.0,2.0,67,0.00,,,0.00,,2013-04-02 07:22:00,
2013-04-02 03:32:00,22.0,13.0,30.14,West,259,1.0,3.0,67,0.00,,,0.00,,2013-04-02 07:32:00,
2013-04-02 03:43:00,22.0,13.0,30.14,West,259,1.0,3.0,67,0.00,,,0.00,,2013-04-02 07:43:00,
2013-04-02 03:52:00,22.0,13.0,30.14,West,259,1.0,3.0,67,0.00,,,0.00,,2013-04-02 07:52:00,
2013-04-02 04:02:00,22.0,13.0,30.14,West,280,2.0,4.0,67,0.00,,,0.00,,2013-04-02 08:02:00,
2013-04-02 04:13:00,22.0,13.0,30.14,West,280,2.0,4.0,67,0.00,,,0.00,,2013-04-02 08:13:00,
2013-04-02 04:22:00,22.0,13.0,30.14,WSW,239,1.0,4.0,67,0.00,,,0.00,,2013-04-02 08:22:00,
2013-04-02 04:32:00,22.0,13.0,30.13,WSW,246,1.0,3.0,68,0.00,,,0.00,,2013-04-02 08:32:00,
2013-04-02 04:42:00,22.0,13.0,30.13,WSW,246,1.0,3.0,68,0.00,,,0.00,,2013-04-02 08:42:00,
2013-04-02 04:52:00,22.0,13.0,30.14,WSW,250,1.0,2.0,69,0.00,,,0.00,,2013-04-02 08:52:00,
2013-04-02 05:02:00,22.0,14.0,30.14,SW,217,1.0,4.0,70,0.00,,,0.00,,2013-04-02 09:02:00,
2013-04-02 05:13:00,22.0,14.0,30.14,SW,217,1.0,4.0,70,0.00,,,0.00,,2013-04-02 09:13:00,
2013-04-02 05:22:00,22.0,14.0,30.14,WSW,246,1.0,4.0,71,0.00,,,0.00,,2013-04-02 09:22:00,
2013-04-02 05:33:00,22.0,14.0,30.14,WSW,238,1.0,5.0,71,0.00,,,0.00,,2013-04-02 09:33:00,
2013-04-02 05:43:00,22.0,14.0,30.14,WSW,238,1.0,5.0,71,0.00,,,0.00,,2013-04-02 09:43:00,
2013-04-02 05:52:00,22.0,14.0,30.14,SW,217,2.0,7.0,71,0.00,,,0.00,,2013-04-02 09:52:00,
2013-04-02 06:03:00,22.0,14.0,30.14,WSW,252,2.0,5.0,72,0.00,,,0.00,,2013-04-02 10:03:00,
2013-04-02 06:13:00,22.0,14.0,30.14,WSW,252,2.0,5.0,72,0.00,,,0.00,,2013-04-02 10:13:00,
2013-04-02 06:24:00,22.0,14.0,30.14,West,264,1.0,4.0,72,0.00,,,0.00,,2013-04-02 10:24:00,
2013-04-02 06:33:00,22.0,14.0,30.15,SW,232,2.0,6.0,72,0.00,,,0.00,,2013-04-02 10:33:00,
2013-04-02 06:42:00,22.0,14.0,30.15,SW,232,2.0,6.0,72,0.00,,,0.00,,2013-04-02 10:42:00,
2013-04-02 06:52:00,22.0,14.0,30.15,NW,305,1.0,3.0,72,0.00,,,0.00,,2013-04-02 10:52:00,
2013-04-02 07:02:00,22.0,15.0,30.16,WNW,285,3.0,5.0,75,0.00,,,0.00,,2013-04-02 11:02:00,
2013-04-02 07:12:00,22.0,15.0,30.16,WNW,285,3.0,5.0,75,0.00,,,0.00,,2013-04-02 11:12:00,
2013-04-02 07:22:00,21.0,15.0,30.17,WNW,298,2.0,5.0,77,0.00,,,0.00,,2013-04-02 11:22:00,
2013-04-02 07:33:00,21.0,15.0,30.17,WNW,298,3.0,5.0,78,0.00,,,0.00,,2013-04-02 11:33:00,
2013-04-02 07:43:00,21.0,15.0,30.17,WNW,298,3.0,5.0,78,0.00,,,0.00,,2013-04-02 11:43:00,
2013-04-02 07:52:00,21.0,15.0,30.18,WNW,294,2.0,5.0,78,0.00,,,0.00,,2013-04-02 11:52:00,
2013-04-02 08:02:00,21.0,15.0,30.19,NW,312,2.0,5.0,78,0.00,,,0.00,,2013-04-02 12:02:00,
2013-04-02 08:12:00,21.0,15.0,30.19,NW,312,2.0,5.0,78,0.00,,,0.00,,2013-04-02 12:12:00,
2013-04-02 08:23:00,22.0,16.0,30.20,WNW,284,1.0,4.0,78,0.00,,,0.00,,2013-04-02 12:23:00,
2013-04-02 08:32:00,23.0,17.0,30.20,WNW,285,2.0,6.0,77,0.00,,,0.00,,2013-04-02 12:32:00,
2013-04-02 08:42:00,23.0,17.0,30.20,WNW,285,2.0,6.0,77,0.00,,,0.00,,2013-04-02 12:42:00,
2013-04-02 08:52:00,24.0,18.0,30.21,West,270,4.0,6.0,76,0.00,,,0.00,,2013-04-02 12:52:00,
2013-04-02 09:02:00,25.0,19.0,30.21,NW,307,3.0,8.0,76,0.00,,,0.00,,2013-04-02 13:02:00,
2013-04-02 09:12:00,25.0,19.0,30.21,NW,307,3.0,8.0,76,0.00,,,0.00,,2013-04-02 13:12:00,
2013-04-02 09:22:00,26.0,19.0,30.21,West,280,4.0,8.0,73,0.00,,,0.00,,2013-04-02 13:22:00,
2013-04-02 09:33:00,26.0,19.0,30.21,West,280,4.0,8.0,73,0.00,,,0.00,,2013-04-02 13:33:00,
2013-04-02 09:42:00,26.0,19.0,30.21,West,280,4.0,8.0,73,0.00,,,0.00,,2013-04-02 13:42:00,
2013-04-02 09:52:00,29.0,16.0,30.22,WNW,284,3.0,7.0,59,0.00,,,0.00,,2013-04-02 13:52:00,
2013-04-02 10:02:00,30.0,13.0,30.22,NW,309,4.0,7.0,49,0.00,,,0.00,,2013-04-02 14:02:00,
2013-04-02 10:12:00,30.0,13.0,30.22,NW,309,4.0,7.0,49,0.00,,,0.00,,2013-04-02 14:12:00,
2013-04-02 10:23:00,31.0,13.0,30.22,North,350,3.0,9.0,47,0.00,,,0.00,,2013-04-02 14:23:00,
2013-04-02 10:32:00,31.0,11.0,30.22,WNW,300,6.0,9.0,43,0.00,,,0.00,,2013-04-02 14:32:00,
2013-04-02 10:42:00,31.0,11.0,30.22,WNW,300,6.0,9.0,43,0.00,,,0.00,,2013-04-02 14:42:00,
2013-04-02 10:52:00,32.0,11.0,30.23,WNW,297,5.0,9.0,41,0.00,,,0.00,,2013-04-02 14:52:00,
2013-04-02 11:02:00,32.0,11.0,30.22,WNW,285,6.0,12.0,41,0.00,,,0.00,,2013-04-02 15:02:00,
2013-04-02 11:12:00,32.0,11.0,30.22,WNW,285,6.0,12.0,41,0.00,,,0.00,,2013-04-02 15:12:00,
2013-04-02 11:22:00,33.0,11.0,30.22,NW,312,3.0,11.0,40,0.00,,,0.00,,2013-04-02 15:22:00,
2013-04-02 11:33:00,33.0,11.0,30.22,WNW,291,6.0,11.0,40,0.00,,,0.00,,2013-04-02 15:33:00,
2013-04-02 11:43:00,33.0,11.0,30.22,WNW,291,6.0,11.0,40,0.00,,,0.00,,2013-04-02 15:43:00,
2013-04-02 11:55:00,34.0,12.0,30.22,West,278,6.0,14.0,40,0.00,,,0.00,,2013-04-02 15:55:00,
2013-04-02 12:04:00,34.0,12.0,30.22,WSW,255,7.0,13.0,39,0.00,,,0.00,,2013-04-02 16:04:00,
2013-04-02 12:14:00,34.0,12.0,30.22,WSW,255,7.0,13.0,39,0.00,,,0.00,,2013-04-02 16:14:00,
2013-04-02 12:25:00,34.0,11.0,30.22,WNW,295,7.0,12.0,38,0.00,,,0.00,,2013-04-02 16:25:00,
2013-04-02 12:38:00,35.0,13.0,30.22,WNW,293,5.0,12.0,39,0.00,,,0.00,,2013-04-02 16:38:00,
2013-04-02 12:44:00,35.0,13.0,30.22,WNW,293,5.0,12.0,39,0.00,,,0.00,,2013-04-02 16:44:00,
2013-04-02 12:53:00,35.0,11.0,30.22,West,266,3.0,14.0,37,0.00,,,0.00,,2013-04-02 16:53:00,
2013-04-02 13:06:00,36.0,12.0,30.21,WNW,295,4.0,14.0,37,0.00,,,0.00,,2013-04-02 17:06:00,
2013-04-02 13:35:00,37.0,13.0,30.21,WNW,293,5.0,12.0,37,0.00,,,0.00,,2013-04-02 17:35:00,
2013-04-02 13:43:00,37.0,13.0,30.21,WNW,293,5.0,12.0,37,0.00,,,0.00,,2013-04-02 17:43:00,
2013-04-02 13:54:00,38.0,13.0,30.20,NW,318,7.0,15.0,36,0.00,,,0.00,,2013-04-02 17:54:00,
2013-04-02 14:04:00,38.0,13.0,30.19,West,278,5.0,14.0,36,0.00,,,0.00,,2013-04-02 18:04:00,
2013-04-02 14:13:00,38.0,13.0,30.19,West,278,5.0,14.0,36,0.00,,,0.00,,2013-04-02 18:13:00,
2013-04-02 14:34:00,38.0,13.0,30.19,WNW,295,6.0,15.0,35,0.00,,,0.00,,2013-04-02 18:34:00,
2013-04-02 14:43:00,38.0,13.0,30.19,WNW,295,6.0,15.0,35,0.00,,,0.00,,2013-04-02 18:43:00,
2013-04-02 14:54:00,38.0,14.0,30.19,WNW,285,6.0,13.0,37,0.00,,,0.00,,2013-04-02 18:54:00,
2013-04-02 15:03:00,38.0,13.0,30.18,WSW,252,6.0,11.0,36,0.00,,,0.00,,2013-04-02 19:03:00,
2013-04-02 15:13:00,38.0,13.0,30.18,WSW,252,6.0,11.0,36,0.00,,,0.00,,2013-04-02 19:13:00,
2013-04-02 15:23:00,39.0,14.0,30.18,WNW,301,9.0,15.0,36,0.00,,,0.00,,2013-04-02 19:23:00,
2013-04-02 15:34:00,39.0,14.0,30.17,WNW,302,7.0,14.0,35,0.00,,,0.00,,2013-04-02 19:34:00,
2013-04-02 15:45:00,39.0,14.0,30.17,WNW,302,7.0,14.0,35,0.00,,,0.00,,2013-04-02 19:45:00,
2013-04-02 15:54:00,39.0,13.0,30.16,WNW,295,5.0,14.0,34,0.00,,,0.00,,2013-04-02 19:54:00,
2013-04-02 16:04:00,40.0,13.0,30.16,WNW,287,6.0,13.0,33,0.00,,,0.00,,2013-04-02 20:04:00,
2013-04-02 16:14:00,40.0,13.0,30.16,WNW,287,6.0,13.0,33,0.00,,,0.00,,2013-04-02 20:14:00,
2013-04-02 16:23:00,39.0,13.0,30.16,SW,226,5.0,12.0,34,0.00,,,0.00,,2013-04-02 20:23:00,
2013-04-02 16:34:00,40.0,13.0,30.16,WNW,295,6.0,15.0,33,0.00,,,0.00,,2013-04-02 20:34:00,
2013-04-02 16:44:00,40.0,13.0,30.16,WNW,295,6.0,15.0,33,0.00,,,0.00,,2013-04-02 20:44:00,
2013-04-02 16:53:00,40.0,13.0,30.16,WNW,295,6.0,15.0,33,0.00,,,0.00,,2013-04-02 20:53:00,
2013-04-02 17:04:00,40.0,13.0,30.15,WNW,284,4.0,12.0,32,0.00,,,0.00,,2013-04-02 21:04:00,
2013-04-02 17:13:00,40.0,13.0,30.15,WNW,284,4.0,12.0,32,0.00,,,0.00,,2013-04-02 21:13:00,
2013-04-02 17:23:00,40.0,12.0,30.15,WNW,290,9.0,14.0,31,0.00,,,0.00,,2013-04-02 21:23:00,
2013-04-02 17:35:00,42.0,13.0,30.16,WNW,288,10.0,15.0,30,0.00,,,0.00,,2013-04-02 21:35:00,
2013-04-02 17:44:00,42.0,13.0,30.16,WNW,288,10.0,15.0,30,0.00,,,0.00,,2013-04-02 21:44:00,
2013-04-02 17:55:00,40.0,12.0,30.16,West,278,6.0,13.0,31,0.00,,,0.00,,2013-04-02 21:55:00,
2013-04-02 18:04:00,41.0,13.0,30.16,WNW,298,8.0,16.0,31,0.00,,,0.00,,2013-04-02 22:04:00,
2013-04-02 18:14:00,41.0,13.0,30.16,WNW,298,8.0,16.0,31,0.00,,,0.00,,2013-04-02 22:14:00,
2013-04-02 18:24:00,40.0,11.0,30.16,West,280,7.0,13.0,30,0.00,,,0.00,,2013-04-02 22:24:00,
2013-04-02 18:33:00,41.0,11.0,30.16,West,259,6.0,13.0,29,0.00,,,0.00,,2013-04-02 22:33:00,
2013-04-02 18:44:00,41.0,11.0,30.16,West,259,6.0,13.0,29,0.00,,,0.00,,2013-04-02 22:44:00,
2013-04-02 18:53:00,41.0,11.0,30.17,WNW,302,9.0,15.0,29,0.00,,,0.00,,2013-04-02 22:53:00,
2013-04-02 19:03:00,41.0,10.0,30.18,WNW,283,9.0,16.0,28,0.00,,,0.00,,2013-04-02 23:03:00,
2013-04-02 19:13:00,41.0,10.0,30.18,WNW,283,9.0,16.0,28,0.00,,,0.00,,2013-04-02 23:13:00,
2013-04-02 19:23:00,40.0,12.0,30.18,WNW,290,8.0,17.0,31,0.00,,,0.00,,2013-04-02 23:23:00,
2013-04-02 19:35:00,40.0,12.0,30.19,NW,305,8.0,14.0,31,0.00,,,0.00,,2013-04-02 23:35:00,
2013-04-02 19:43:00,40.0,12.0,30.19,NW,305,8.0,14.0,31,0.00,,,0.00,,2013-04-02 23:43:00,
2013-04-02 19:53:00,39.0,11.0,30.19,West,281,6.0,13.0,31,0.00,,,0.00,,2013-04-02 23:53:00,
2013-04-02 20:04:00,38.0,11.0,30.19,WNW,285,6.0,13.0,33,0.00,,,0.00,,2013-04-03 00:04:00,
2013-04-02 20:13:00,38.0,11.0,30.19,WNW,285,6.0,13.0,33,0.00,,,0.00,,2013-04-03 00:13:00,
2013-04-02 20:25:00,37.0,13.0,30.20,WNW,299,4.0,9.0,36,0.00,,,0.00,,2013-04-03 00:25:00,
2013-04-02 20:34:00,35.0,11.0,30.20,NW,309,5.0,9.0,37,0.00,,,0.00,,2013-04-03 00:34:00,
2013-04-02 20:47:00,35.0,11.0,30.20,NW,309,5.0,9.0,37,0.00,,,0.00,,2013-04-03 00:47:00,
2013-04-02 20:53:00,34.0,13.0,30.21,WNW,283,2.0,5.0,41,0.00,,,0.00,,2013-04-03 00:53:00,
2013-04-02 21:04:00,32.0,13.0,30.22,WNW,293,3.0,4.0,44,0.00,,,0.00,,2013-04-03 01:04:00,
2013-04-02 21:13:00,32.0,13.0,30.22,WNW,293,3.0,4.0,44,0.00,,,0.00,,2013-04-03 01:13:00,
2013-04-02 21:23:00,31.0,13.0,30.22,WNW,295,3.0,5.0,46,0.00,,,0.00,,2013-04-03 01:23:00,
2013-04-02 21:33:00,31.0,13.0,30.23,WNW,300,4.0,5.0,46,0.00,,,0.00,,2013-04-03 01:33:00,
2013-04-02 21:42:00,31.0,13.0,30.23,WNW,300,4.0,5.0,46,0.00,,,0.00,,2013-04-03 01:42:00,
2013-04-02 21:53:00,31.0,13.0,30.24,WNW,297,3.0,6.0,46,0.00,,,0.00,,2013-04-03 01:53:00,
2013-04-02 22:13:00,30.0,13.0,30.25,NW,314,3.0,4.0,48,0.00,,,0.00,,2013-04-03 02:13:00,
2013-04-02 22:25:00,29.0,13.0,30.25,WNW,301,2.0,4.0,51,0.00,,,0.00,,2013-04-03 02:25:00,
2013-04-02 22:34:00,29.0,13.0,30.26,WNW,301,3.0,4.0,51,0.00,,,0.00,,2013-04-03 02:34:00,
2013-04-02 22:52:00,27.0,13.0,30.26,NW,305,2.0,3.0,54,0.00,,,0.00,,2013-04-03 02:52:00,
2013-04-02 23:06:00,27.0,13.0,30.26,WNW,295,1.0,3.0,55,0.00,,,0.00,,2013-04-03 03:06:00,
2013-04-02 23:14:00,27.0,13.0,30.26,WNW,295,1.0,3.0,55,0.00,,,0.00,,2013-04-03 03:14:00,
2013-04-02 23:23:00,27.0,12.0,30.27,WNW,290,2.0,3.0,53,0.00,,,0.00,,2013-04-03 03:23:00,
2013-04-02 23:38:00,26.0,12.0,30.27,NW,309,2.0,4.0,55,0.00,,,0.00,,2013-04-03 03:38:00,
2013-04-02 23:44:00,26.0,12.0,30.27,NW,309,2.0,4.0,55,0.00,,,0.00,,2013-04-03 03:44:00,
2013-04-02 23:53:00,26.0,12.0,30.27,WNW,302,1.0,4.0,55,0.00,,,0.00,,2013-04-03 03:53:00,